Time;durP1;ratioP1;P1;durP2;ratioP2;P2;SDS_P1;SDS_P2;PMS_P1;PMS_P2;Temp;Humidity;BMP_temperature;BMP_pressure;BME280_temperature;BME280_humidity;BME280_pressure;Samples;Min_cycle;Max_cycle;Signal;HPM_P1;HPM_P2
2023/06/19 00:01:10;;;;;;;8.70;7.90;;;;;;;;;;5058385;28;20263;-63
2023/06/19 00:03:38;;;;;;;8.50;7.60;;;;;;;;;;5069742;28;20232;-63
2023/06/19 00:06:06;;;;;;;8.57;7.78;;;;;;;;;;5058639;28;20210;-62
2023/06/19 00:08:33;;;;;;;8.75;8.05;;;;;;;;;;5059084;28;20206;-62
2023/06/19 00:11:01;;;;;;;8.55;7.80;;;;;;;;;;5051761;28;21279;-62
2023/06/19 00:13:28;;;;;;;8.85;8.00;;;;;;;;;;5054211;28;20723;-62
2023/06/19 00:16:00;;;;;;;8.60;7.90;;;;;;;;;;5061662;28;20660;-62
2023/06/19 00:18:28;;;;;;;9.05;8.10;;;;;;;;;;5063895;28;20223;-63
2023/06/19 00:20:56;;;;;;;8.30;7.60;;;;;;;;;;5063961;28;20193;-63
2023/06/19 00:23:23;;;;;;;9.27;7.60;;;;;;;;;;5067841;28;20226;-63
2023/06/19 00:25:51;;;;;;;8.30;7.53;;;;;;;;;;5049650;28;20575;-62
2023/06/19 00:28:19;;;;;;;8.57;7.18;;;;;;;;;;5076112;28;20266;-64
2023/06/19 00:30:47;;;;;;;8.35;7.40;;;;;;;;;;5053982;28;20210;-63
2023/06/19 00:33:14;;;;;;;8.23;7.53;;;;;;;;;;5057033;28;20233;-63
2023/06/19 00:35:41;;;;;;;8.88;8.07;;;;;;;;;;5054927;28;20255;-62
2023/06/19 00:38:09;;;;;;;9.68;8.15;;;;;;;;;;5057127;28;20282;-63
2023/06/19 00:40:36;;;;;;;8.77;8.00;;;;;;;;;;5054735;28;20206;-63
2023/06/19 00:43:03;;;;;;;11.57;8.75;;;;;;;;;;5060520;28;20245;-63
2023/06/19 00:45:31;;;;;;;9.48;8.52;;;;;;;;;;5061971;28;20213;-61
2023/06/19 00:48:00;;;;;;;9.25;8.35;;;;;;;;;;5059546;28;20205;-61
2023/06/19 00:50:29;;;;;;;9.20;8.30;;;;;;;;;;5060374;28;20243;-63
2023/06/19 00:52:58;;;;;;;8.68;7.88;;;;;;;;;;5071677;28;20954;-63
2023/06/19 00:55:26;;;;;;;9.25;8.07;;;;;;;;;;5064257;28;20630;-62
2023/06/19 00:57:53;;;;;;;8.05;7.43;;;;;;;;;;5062337;28;20233;-63
2023/06/19 01:00:21;;;;;;;8.13;7.38;;;;;;;;;;5065733;28;20196;-63
2023/06/19 01:02:48;;;;;;;8.77;7.97;;;;;;;;;;5067412;28;20220;-63
2023/06/19 01:05:16;;;;;;;7.93;7.20;;;;;;;;;;5070294;28;20202;-63
2023/06/19 01:07:53;;;;;;;9.20;8.30;;;;;;;;;;5068602;28;20206;-63
2023/06/19 01:10:22;;;;;;;8.85;8.05;;;;;;;;;;5070381;28;20212;-62
2023/06/19 01:12:52;;;;;;;9.05;8.15;;;;;;;;;;5070542;28;20228;-63
2023/06/19 01:15:20;;;;;;;8.70;7.90;;;;;;;;;;5053782;28;20214;-63
2023/06/19 01:17:47;;;;;;;8.85;8.02;;;;;;;;;;5045360;28;20260;-62
2023/06/19 01:20:15;;;;;;;9.10;8.18;;;;;;;;;;5064408;28;20254;-63
2023/06/19 01:22:43;;;;;;;7.65;6.95;;;;;;;;;;5069628;28;20217;-62
2023/06/19 01:25:14;;;;;;;8.75;7.65;;;;;;;;;;5057617;28;20309;-63
2023/06/19 01:27:42;;;;;;;8.10;7.40;;;;;;;;;;5059334;28;20201;-63
2023/06/19 01:30:10;;;;;;;8.00;7.20;;;;;;;;;;5060362;28;20220;-63
2023/06/19 01:32:56;;;;;;;7.55;6.95;;;;;;;;;;5057009;28;20229;-62
2023/06/19 01:35:25;;;;;;;8.63;7.88;;;;;;;;;;5066699;28;20266;-63
2023/06/19 01:37:53;;;;;;;8.70;7.90;;;;;;;;;;5064958;28;20702;-65
2023/06/19 01:40:24;;;;;;;8.75;7.75;;;;;;;;;;5070640;28;20612;-64
2023/06/19 01:42:55;;;;;;;8.35;7.63;;;;;;;;;;5061037;28;20238;-62
2023/06/19 01:45:23;;;;;;;10.20;8.27;;;;;;;;;;5054340;28;20221;-62
2023/06/19 01:47:50;;;;;;;8.48;7.75;;;;;;;;;;5053125;28;20224;-62
2023/06/19 01:50:17;;;;;;;8.00;7.22;;;;;;;;;;5061495;28;20218;-62
2023/06/19 01:52:45;;;;;;;7.80;7.10;;;;;;;;;;5061838;28;20702;-62
2023/06/19 01:55:12;;;;;;;7.40;6.80;;;;;;;;;;5065244;28;20209;-62
2023/06/19 01:57:40;;;;;;;7.55;6.85;;;;;;;;;;5065838;28;20322;-62
2023/06/19 02:00:09;;;;;;;7.20;6.53;;;;;;;;;;5046841;28;20250;-63
2023/06/19 02:02:37;;;;;;;7.60;6.80;;;;;;;;;;5060476;28;20763;-62
2023/06/19 02:05:05;;;;;;;7.03;6.43;;;;;;;;;;5063996;28;20200;-62
2023/06/19 02:07:32;;;;;;;7.45;6.63;;;;;;;;;;5065048;28;20202;-63
2023/06/19 02:10:00;;;;;;;7.30;6.70;;;;;;;;;;5065116;28;20224;-62
2023/06/19 02:12:27;;;;;;;7.43;6.72;;;;;;;;;;5072449;28;20249;-63
2023/06/19 02:14:54;;;;;;;6.90;6.25;;;;;;;;;;5063134;28;20201;-63
2023/06/19 02:17:22;;;;;;;7.05;6.43;;;;;;;;;;5065651;28;20205;-62
2023/06/19 02:19:49;;;;;;;7.88;7.13;;;;;;;;;;5071882;28;20213;-63
2023/06/19 02:22:17;;;;;;;6.88;6.28;;;;;;;;;;5063591;28;20229;-61
2023/06/19 02:24:44;;;;;;;6.65;6.15;;;;;;;;;;5070144;28;20256;-63
2023/06/19 02:27:11;;;;;;;6.85;6.20;;;;;;;;;;5058270;28;20369;-62
2023/06/19 02:29:39;;;;;;;7.00;6.40;;;;;;;;;;5071333;28;20577;-62
2023/06/19 02:32:06;;;;;;;7.75;6.95;;;;;;;;;;5070774;28;20306;-63
2023/06/19 02:34:33;;;;;;;8.55;6.50;;;;;;;;;;5061297;28;20656;-63
2023/06/19 02:37:01;;;;;;;9.25;6.53;;;;;;;;;;5074422;28;20206;-64
2023/06/19 02:39:28;;;;;;;6.88;6.05;;;;;;;;;;5076260;28;20237;-63
2023/06/19 02:41:55;;;;;;;7.60;6.40;;;;;;;;;;5063825;28;20758;-63
2023/06/19 02:44:22;;;;;;;6.90;6.30;;;;;;;;;;5065232;28;20667;-63
2023/06/19 02:46:50;;;;;;;9.23;6.40;;;;;;;;;;5054738;28;20212;-63
2023/06/19 02:49:17;;;;;;;6.75;6.25;;;;;;;;;;5050423;28;20821;-62
2023/06/19 02:51:46;;;;;;;6.60;5.88;;;;;;;;;;5069275;28;20219;-61
2023/06/19 02:54:13;;;;;;;7.18;6.57;;;;;;;;;;5085546;28;20732;-62
2023/06/19 02:56:41;;;;;;;7.47;6.30;;;;;;;;;;5067510;28;20683;-62
2023/06/19 02:59:08;;;;;;;10.00;6.60;;;;;;;;;;5067304;28;20599;-62
2023/06/19 03:01:36;;;;;;;6.68;6.00;;;;;;;;;;5073986;28;20697;-62
2023/06/19 03:04:03;;;;;;;6.57;6.07;;;;;;;;;;5066597;28;20610;-62
2023/06/19 03:06:31;;;;;;;6.72;6.10;;;;;;;;;;5073974;28;20216;-62
2023/06/19 03:08:59;;;;;;;6.45;5.95;;;;;;;;;;5078496;28;20282;-62
2023/06/19 03:11:26;;;;;;;6.40;5.80;;;;;;;;;;5054492;28;20198;-63
2023/06/19 03:13:54;;;;;;;8.50;7.28;;;;;;;;;;5055803;28;20216;-62
2023/06/19 03:16:22;;;;;;;7.30;6.68;;;;;;;;;;5078510;28;20274;-62
2023/06/19 03:18:49;;;;;;;6.25;5.72;;;;;;;;;;5072496;28;20221;-62
2023/06/19 03:21:19;;;;;;;7.03;5.75;;;;;;;;;;5067650;28;20197;-63
2023/06/19 03:23:47;;;;;;;5.88;5.47;;;;;;;;;;5071782;28;20320;-62
2023/06/19 03:26:14;;;;;;;5.40;5.00;;;;;;;;;;5065436;28;20205;-63
2023/06/19 03:28:42;;;;;;;8.95;5.05;;;;;;;;;;5064111;28;20740;-62
2023/06/19 03:31:09;;;;;;;5.70;5.20;;;;;;;;;;5052099;28;20217;-62
2023/06/19 03:33:36;;;;;;;5.18;4.78;;;;;;;;;;5046907;28;20275;-62
2023/06/19 03:36:04;;;;;;;5.43;4.93;;;;;;;;;;5072880;28;21317;-62
2023/06/19 03:38:31;;;;;;;4.90;4.47;;;;;;;;;;5048538;28;20278;-62
2023/06/19 03:41:00;;;;;;;12.68;7.93;;;;;;;;;;5060150;28;20201;-62
2023/06/19 03:43:27;;;;;;;5.40;4.60;;;;;;;;;;5044620;28;20236;-61
2023/06/19 03:45:54;;;;;;;4.82;4.32;;;;;;;;;;5059028;28;20197;-62
2023/06/19 03:48:22;;;;;;;5.20;4.70;;;;;;;;;;5053352;28;20271;-62
2023/06/19 03:50:50;;;;;;;4.35;4.05;;;;;;;;;;5058879;28;20908;-62
2023/06/19 03:53:17;;;;;;;13.65;7.47;;;;;;;;;;5062457;28;20255;-62
2023/06/19 03:55:44;;;;;;;6.60;4.50;;;;;;;;;;5043995;28;20202;-63
2023/06/19 03:58:11;;;;;;;4.28;3.95;;;;;;;;;;5047464;28;20222;-63
2023/06/19 04:00:39;;;;;;;3.22;3.03;;;;;;;;;;5054208;28;20271;-62
2023/06/19 04:03:08;;;;;;;5.45;3.13;;;;;;;;;;5049237;28;20680;-61
2023/06/19 04:05:35;;;;;;;3.53;3.22;;;;;;;;;;5052888;28;20198;-63
2023/06/19 04:08:04;;;;;;;4.22;3.50;;;;;;;;;;5047868;28;20198;-64
2023/06/19 04:10:31;;;;;;;3.22;2.90;;;;;;;;;;5048892;28;20214;-61
2023/06/19 04:13:02;;;;;;;11.55;6.60;;;;;;;;;;5052900;28;20721;-63
2023/06/19 04:15:31;;;;;;;16.00;7.88;;;;;;;;;;5060597;28;20260;-63
2023/06/19 04:18:00;;;;;;;8.57;4.55;;;;;;;;;;5047140;28;20206;-63
2023/06/19 04:20:28;;;;;;;4.30;3.85;;;;;;;;;;5035126;28;20226;-63
2023/06/19 04:22:55;;;;;;;4.70;3.95;;;;;;;;;;5052187;28;22672;-61
2023/06/19 04:25:22;;;;;;;3.25;2.88;;;;;;;;;;5054019;28;20663;-61
2023/06/19 04:27:50;;;;;;;3.30;3.10;;;;;;;;;;5052968;28;20394;-63
2023/06/19 04:30:17;;;;;;;3.60;3.30;;;;;;;;;;5056206;28;20205;-63
2023/06/19 04:32:44;;;;;;;4.15;3.25;;;;;;;;;;5060083;28;20222;-61
2023/06/19 04:35:12;;;;;;;3.75;3.45;;;;;;;;;;5062871;28;20202;-64
2023/06/19 04:37:39;;;;;;;3.60;3.30;;;;;;;;;;5061494;28;20210;-64
2023/06/19 04:40:07;;;;;;;3.33;3.13;;;;;;;;;;5063498;28;20248;-64
2023/06/19 04:42:35;;;;;;;3.40;3.03;;;;;;;;;;5064081;28;20218;-64
2023/06/19 04:45:02;;;;;;;3.53;3.22;;;;;;;;;;5058407;28;20251;-61
2023/06/19 04:47:29;;;;;;;3.28;3.08;;;;;;;;;;5062972;28;20668;-64
2023/06/19 04:50:17;;;;;;;3.28;3.00;;;;;;;;;;5050535;28;20663;-61
2023/06/19 04:52:44;;;;;;;3.00;2.70;;;;;;;;;;5057115;28;20415;-62
2023/06/19 04:55:11;;;;;;;2.58;2.47;;;;;;;;;;5057665;28;20205;-62
2023/06/19 04:57:39;;;;;;;2.90;2.70;;;;;;;;;;5063152;28;20666;-62
2023/06/19 05:00:07;;;;;;;3.13;2.92;;;;;;;;;;5077079;28;20226;-64
2023/06/19 05:02:34;;;;;;;3.05;2.85;;;;;;;;;;5079487;28;20221;-62
2023/06/19 05:05:03;;;;;;;2.97;2.70;;;;;;;;;;5050977;28;20228;-63
2023/06/19 05:07:31;;;;;;;2.85;2.65;;;;;;;;;;5070625;28;20232;-63
2023/06/19 05:09:59;;;;;;;2.80;2.60;;;;;;;;;;5067375;28;20262;-64
2023/06/19 05:12:26;;;;;;;4.38;3.65;;;;;;;;;;5063301;28;20259;-61
2023/06/19 05:14:54;;;;;;;3.88;3.35;;;;;;;;;;5065583;28;20204;-63
2023/06/19 05:17:21;;;;;;;3.38;3.10;;;;;;;;;;5080712;28;20204;-61
2023/06/19 05:19:49;;;;;;;2.30;2.20;;;;;;;;;;5072078;28;20225;-63
2023/06/19 05:22:18;;;;;;;2.30;2.20;;;;;;;;;;5076677;28;20217;-64
2023/06/19 05:24:45;;;;;;;2.33;2.20;;;;;;;;;;5085961;28;20214;-64
2023/06/19 05:27:13;;;;;;;2.55;2.35;;;;;;;;;;5063929;28;20656;-63
2023/06/19 05:29:40;;;;;;;2.40;2.20;;;;;;;;;;5063985;28;20217;-64
2023/06/19 05:32:07;;;;;;;2.75;2.55;;;;;;;;;;5055332;28;20240;-65
2023/06/19 05:34:35;;;;;;;2.33;2.22;;;;;;;;;;5068520;28;20573;-63
2023/06/19 05:37:03;;;;;;;2.15;2.05;;;;;;;;;;5049056;28;20198;-64
2023/06/19 05:39:30;;;;;;;2.30;2.10;;;;;;;;;;5063287;28;20232;-64
2023/06/19 05:41:58;;;;;;;2.15;2.00;;;;;;;;;;5080487;28;20279;-62
2023/06/19 05:44:25;;;;;;;2.20;2.00;;;;;;;;;;5061070;28;20231;-64
2023/06/19 05:46:53;;;;;;;3.88;2.15;;;;;;;;;;5060091;28;20221;-63
2023/06/19 05:49:21;;;;;;;2.13;2.03;;;;;;;;;;5062518;28;20210;-63
2023/06/19 05:51:48;;;;;;;2.40;2.30;;;;;;;;;;5063576;28;20221;-62
2023/06/19 05:54:17;;;;;;;2.00;1.90;;;;;;;;;;5058333;28;20204;-63
2023/06/19 05:56:46;;;;;;;2.47;2.28;;;;;;;;;;5056346;28;20208;-63
2023/06/19 05:59:14;;;;;;;2.75;2.55;;;;;;;;;;5058253;28;20230;-62
2023/06/19 06:01:41;;;;;;;2.67;2.47;;;;;;;;;;5059725;28;20205;-64
2023/06/19 06:04:09;;;;;;;2.45;2.33;;;;;;;;;;5046359;28;20202;-62
2023/06/19 06:06:37;;;;;;;2.30;2.20;;;;;;;;;;5052535;28;20855;-64
2023/06/19 06:09:04;;;;;;;2.10;2.00;;;;;;;;;;5061396;28;20209;-64
2023/06/19 06:11:32;;;;;;;3.03;2.33;;;;;;;;;;5064394;28;20573;-64
2023/06/19 06:13:59;;;;;;;2.30;2.20;;;;;;;;;;5059321;28;20283;-64
2023/06/19 06:16:27;;;;;;;3.03;2.55;;;;;;;;;;5046193;28;20202;-63
2023/06/19 06:18:54;;;;;;;2.63;2.50;;;;;;;;;;5046348;28;20225;-62
2023/06/19 06:21:21;;;;;;;3.25;2.67;;;;;;;;;;5063886;28;20639;-65
2023/06/19 06:23:49;;;;;;;4.00;2.80;;;;;;;;;;5043797;28;20318;-63
2023/06/19 06:26:16;;;;;;;3.17;2.88;;;;;;;;;;5060429;28;20203;-63
2023/06/19 06:28:43;;;;;;;2.88;2.67;;;;;;;;;;5060004;28;20201;-65
2023/06/19 06:31:11;;;;;;;3.40;3.05;;;;;;;;;;5056019;28;20212;-63
2023/06/19 06:33:38;;;;;;;3.00;2.80;;;;;;;;;;5058742;28;20236;-64
2023/06/19 06:36:06;;;;;;;3.42;3.13;;;;;;;;;;5068065;28;20204;-64
2023/06/19 06:38:35;;;;;;;3.30;3.10;;;;;;;;;;5049633;28;20237;-62
2023/06/19 06:41:02;;;;;;;3.00;2.78;;;;;;;;;;5068711;28;20755;-63
2023/06/19 06:43:30;;;;;;;3.47;3.20;;;;;;;;;;5047384;28;20269;-64
2023/06/19 06:45:58;;;;;;;4.78;3.38;;;;;;;;;;5059117;28;20193;-63
2023/06/19 06:48:26;;;;;;;3.20;3.00;;;;;;;;;;5074580;28;20678;-63
2023/06/19 06:50:59;;;;;;;3.75;3.45;;;;;;;;;;5046162;28;20202;-63
2023/06/19 06:53:27;;;;;;;3.60;3.30;;;;;;;;;;5059393;28;20225;-62
2023/06/19 06:55:55;;;;;;;3.80;3.50;;;;;;;;;;5052173;28;20214;-63
2023/06/19 06:58:23;;;;;;;3.88;3.58;;;;;;;;;;5066350;28;20236;-63
2023/06/19 07:00:50;;;;;;;5.15;4.07;;;;;;;;;;5057186;28;20275;-63
2023/06/19 07:03:18;;;;;;;4.00;3.70;;;;;;;;;;5041776;28;20274;-63
2023/06/19 07:05:46;;;;;;;3.72;3.42;;;;;;;;;;5061987;28;20284;-63
2023/06/19 07:08:13;;;;;;;3.53;3.25;;;;;;;;;;5056680;28;20228;-64
2023/06/19 07:10:40;;;;;;;4.15;3.85;;;;;;;;;;5056896;28;20239;-64
2023/06/19 07:13:08;;;;;;;3.85;3.55;;;;;;;;;;5057228;28;20226;-63
2023/06/19 07:15:35;;;;;;;3.50;3.28;;;;;;;;;;5061593;28;20208;-63
2023/06/19 07:18:03;;;;;;;4.53;4.03;;;;;;;;;;5068780;28;20205;-64
2023/06/19 07:20:30;;;;;;;3.97;3.58;;;;;;;;;;5046395;28;20229;-63
2023/06/19 07:22:58;;;;;;;7.10;4.20;;;;;;;;;;5063961;28;20278;-63
2023/06/19 07:25:25;;;;;;;6.63;4.20;;;;;;;;;;5065470;28;20206;-63
2023/06/19 07:27:53;;;;;;;5.13;3.80;;;;;;;;;;5045405;28;20197;-63
2023/06/19 07:30:28;;;;;;;4.50;4.10;;;;;;;;;;5065913;28;20209;-61
2023/06/19 07:32:55;;;;;;;4.10;3.80;;;;;;;;;;5056247;28;20220;-62
2023/06/19 07:35:22;;;;;;;4.68;4.38;;;;;;;;;;5044879;28;20206;-61
2023/06/19 07:37:50;;;;;;;4.63;4.22;;;;;;;;;;5059490;28;20209;-64
2023/06/19 07:40:17;;;;;;;5.05;4.30;;;;;;;;;;5055116;28;20255;-63
2023/06/19 07:42:44;;;;;;;4.85;4.32;;;;;;;;;;5064857;28;20263;-63
2023/06/19 07:45:13;;;;;;;5.18;4.70;;;;;;;;;;5060358;28;20671;-63
2023/06/19 07:47:43;;;;;;;4.63;4.22;;;;;;;;;;5066454;28;20654;-63
2023/06/19 07:50:11;;;;;;;5.60;5.10;;;;;;;;;;5066526;28;20206;-63
2023/06/19 07:52:38;;;;;;;6.18;5.03;;;;;;;;;;5070201;28;20691;-63
2023/06/19 07:55:05;;;;;;;5.60;4.68;;;;;;;;;;5058419;28;20236;-63
2023/06/19 07:57:33;;;;;;;5.10;4.45;;;;;;;;;;5060628;28;20572;-62
2023/06/19 08:00:04;;;;;;;5.18;4.68;;;;;;;;;;5065973;28;20281;-62
2023/06/19 08:02:33;;;;;;;5.45;4.47;;;;;;;;;;5060235;28;20256;-62
2023/06/19 08:05:00;;;;;;;5.95;4.82;;;;;;;;;;5060674;28;20214;-63
2023/06/19 08:07:28;;;;;;;5.15;4.60;;;;;;;;;;5052985;28;20226;-63
2023/06/19 08:09:55;;;;;;;5.22;4.80;;;;;;;;;;5060353;28;20205;-63
2023/06/19 08:12:38;;;;;;;5.32;4.82;;;;;;;;;;5069194;28;20291;-63
2023/06/19 08:15:05;;;;;;;5.63;5.15;;;;;;;;;;5066829;28;20707;-63
2023/06/19 08:17:32;;;;;;;5.10;4.70;;;;;;;;;;5068548;28;20628;-63
2023/06/19 08:20:00;;;;;;;4.80;4.40;;;;;;;;;;5063752;28;20221;-63
2023/06/19 08:22:27;;;;;;;5.28;4.78;;;;;;;;;;5054566;28;20226;-63
2023/06/19 08:24:54;;;;;;;5.25;4.32;;;;;;;;;;5062011;28;20265;-64
2023/06/19 08:27:22;;;;;;;4.68;4.30;;;;;;;;;;5061975;28;20201;-62
2023/06/19 08:29:49;;;;;;;5.00;4.60;;;;;;;;;;5058730;28;20232;-63
2023/06/19 08:32:17;;;;;;;3.90;3.60;;;;;;;;;;5063786;28;20236;-63
2023/06/19 08:34:44;;;;;;;3.90;3.60;;;;;;;;;;5065823;28;20664;-63
2023/06/19 08:37:12;;;;;;;4.47;4.00;;;;;;;;;;5065265;28;20685;-63
2023/06/19 08:39:39;;;;;;;4.60;4.20;;;;;;;;;;5053633;28;20213;-63
2023/06/19 08:42:07;;;;;;;4.20;3.90;;;;;;;;;;5065956;28;20611;-63
2023/06/19 08:44:37;;;;;;;4.47;4.07;;;;;;;;;;5053471;28;20205;-62
2023/06/19 08:47:06;;;;;;;4.47;3.90;;;;;;;;;;5065957;28;20300;-63
2023/06/19 08:49:34;;;;;;;4.35;4.05;;;;;;;;;;5049112;28;20201;-63
2023/06/19 08:52:02;;;;;;;3.72;3.50;;;;;;;;;;5061432;28;20225;-63
2023/06/19 08:54:30;;;;;;;4.00;3.60;;;;;;;;;;5059347;28;20200;-63
2023/06/19 08:57:00;;;;;;;4.13;3.83;;;;;;;;;;5065223;28;20206;-63
2023/06/19 08:59:28;;;;;;;3.90;3.60;;;;;;;;;;5059992;28;20229;-63
2023/06/19 09:01:56;;;;;;;4.00;3.70;;;;;;;;;;5058905;28;20709;-63
2023/06/19 09:04:26;;;;;;;4.47;3.15;;;;;;;;;;5072522;28;20209;-63
2023/06/19 09:06:54;;;;;;;3.28;2.97;;;;;;;;;;5066397;28;20273;-64
2023/06/19 09:09:22;;;;;;;3.85;2.97;;;;;;;;;;5063971;28;20213;-63
2023/06/19 09:12:00;;;;;;;3.70;3.40;;;;;;;;;;5067710;28;20229;-63
2023/06/19 09:14:33;;;;;;;3.50;3.20;;;;;;;;;;5057572;28;20254;-63
2023/06/19 09:17:01;;;;;;;3.60;3.40;;;;;;;;;;5060224;28;20213;-63
2023/06/19 09:19:29;;;;;;;3.75;3.25;;;;;;;;;;5061261;28;20236;-61
2023/06/19 09:22:00;;;;;;;3.28;2.97;;;;;;;;;;5059815;28;20757;-63
2023/06/19 09:24:34;;;;;;;3.45;3.15;;;;;;;;;;5070305;28;20215;-62
2023/06/19 09:27:17;;;;;;;3.15;2.95;;;;;;;;;;5061418;28;20231;-63
2023/06/19 09:29:54;;;;;;;3.08;2.85;;;;;;;;;;5058332;28;20696;-62
2023/06/19 09:32:25;;;;;;;3.22;2.92;;;;;;;;;;5063459;28;20229;-62
2023/06/19 09:34:54;;;;;;;3.30;3.10;;;;;;;;;;5065473;28;20201;-63
2023/06/19 09:37:24;;;;;;;3.70;3.40;;;;;;;;;;5062303;28;20256;-62
2023/06/19 09:39:53;;;;;;;3.45;3.13;;;;;;;;;;5051130;28;20229;-62
2023/06/19 09:42:41;;;;;;;3.20;3.00;;;;;;;;;;5047659;28;20572;-61
2023/06/19 09:45:14;;;;;;;3.17;2.97;;;;;;;;;;5062470;28;20201;-62
2023/06/19 09:47:44;;;;;;;3.20;2.90;;;;;;;;;;5053909;28;20528;-62
2023/06/19 09:50:16;;;;;;;2.88;2.67;;;;;;;;;;5036236;28;20197;-62
2023/06/19 09:52:45;;;;;;;2.58;2.38;;;;;;;;;;5061791;28;20225;-62
2023/06/19 09:55:13;;;;;;;2.55;2.45;;;;;;;;;;5063582;28;20227;-62
2023/06/19 09:57:41;;;;;;;2.72;2.47;;;;;;;;;;5071438;28;20197;-62
2023/06/19 10:00:15;;;;;;;3.90;2.60;;;;;;;;;;5065013;28;20376;-62
2023/06/19 10:02:43;;;;;;;2.17;2.08;;;;;;;;;;5070832;28;20252;-62
2023/06/19 10:05:13;;;;;;;2.47;2.28;;;;;;;;;;5041024;28;20229;-62
2023/06/19 10:07:42;;;;;;;2.10;2.00;;;;;;;;;;5039382;28;20202;-62
2023/06/19 10:10:12;;;;;;;2.85;2.00;;;;;;;;;;5048802;28;20197;-62
2023/06/19 10:12:43;;;;;;;2.10;2.00;;;;;;;;;;5029201;28;20233;-61
2023/06/19 10:15:18;;;;;;;1.80;1.70;;;;;;;;;;5058079;28;20217;-62
2023/06/19 10:17:45;;;;;;;2.30;2.10;;;;;;;;;;5067226;28;20602;-61
2023/06/19 10:20:31;;;;;;;2.13;2.03;;;;;;;;;;5059596;28;20218;-62
2023/06/19 10:23:22;;;;;;;2.00;1.90;;;;;;;;;;5059936;28;20221;-61
2023/06/19 10:25:58;;;;;;;2.17;2.00;;;;;;;;;;5055877;28;20223;-62
2023/06/19 10:28:28;;;;;;;2.03;1.92;;;;;;;;;;5065530;28;20820;-62
2023/06/19 10:30:59;;;;;;;2.15;2.05;;;;;;;;;;5062037;28;20225;-63
2023/06/19 10:33:27;;;;;;;2.20;2.10;;;;;;;;;;5067199;28;20217;-62
2023/06/19 10:35:55;;;;;;;2.40;2.10;;;;;;;;;;5064017;28;20205;-62
2023/06/19 10:38:22;;;;;;;2.15;2.05;;;;;;;;;;5064237;28;20205;-62
2023/06/19 10:40:49;;;;;;;2.20;2.10;;;;;;;;;;5049402;28;20233;-62
2023/06/19 10:43:31;;;;;;;2.05;1.95;;;;;;;;;;5057796;28;20271;-61
2023/06/19 10:45:59;;;;;;;3.78;2.20;;;;;;;;;;5062041;28;20492;-62
2023/06/19 10:48:26;;;;;;;2.40;2.30;;;;;;;;;;5059084;28;20313;-63
2023/06/19 10:50:56;;;;;;;3.00;2.80;;;;;;;;;;5065705;28;20254;-63
2023/06/19 10:53:27;;;;;;;3.10;2.90;;;;;;;;;;5064614;28;20229;-63
2023/06/19 10:55:56;;;;;;;3.72;2.33;;;;;;;;;;5058343;28;20208;-63
2023/06/19 10:58:23;;;;;;;2.85;2.60;;;;;;;;;;5066089;28;20213;-63
2023/06/19 11:00:51;;;;;;;2.58;2.38;;;;;;;;;;5066410;28;20225;-63
2023/06/19 11:03:19;;;;;;;2.60;2.40;;;;;;;;;;5050017;28;20241;-62
2023/06/19 11:05:47;;;;;;;2.35;2.20;;;;;;;;;;5069010;28;20292;-62
2023/06/19 11:08:21;;;;;;;2.65;2.45;;;;;;;;;;5067762;28;20201;-61
2023/06/19 11:10:49;;;;;;;2.65;2.45;;;;;;;;;;5058097;28;20215;-63
2023/06/19 11:13:17;;;;;;;2.70;2.50;;;;;;;;;;5052127;28;20241;-63
2023/06/19 11:15:45;;;;;;;2.53;2.42;;;;;;;;;;5065028;28;20565;-63
2023/06/19 11:18:15;;;;;;;2.40;2.30;;;;;;;;;;5074423;28;20217;-63
2023/06/19 11:20:47;;;;;;;2.35;2.25;;;;;;;;;;5075075;28;20236;-63
2023/06/19 11:23:15;;;;;;;2.95;2.50;;;;;;;;;;5061568;28;20237;-61
2023/06/19 11:25:42;;;;;;;3.10;2.40;;;;;;;;;;5070559;28;20201;-62
2023/06/19 11:28:14;;;;;;;2.53;2.33;;;;;;;;;;5073489;28;20204;-62
2023/06/19 11:30:44;;;;;;;2.58;2.38;;;;;;;;;;5065574;28;20209;-62
2023/06/19 11:33:22;;;;;;;2.70;2.50;;;;;;;;;;5061409;28;21001;-62
2023/06/19 11:35:57;;;;;;;2.65;2.45;;;;;;;;;;5048039;28;20209;-62
2023/06/19 11:38:26;;;;;;;2.50;2.40;;;;;;;;;;5058258;28;20206;-61
2023/06/19 11:40:56;;;;;;;2.50;2.30;;;;;;;;;;5076248;28;20245;-62
2023/06/19 11:43:25;;;;;;;2.67;2.47;;;;;;;;;;5073922;28;20738;-63
2023/06/19 11:45:52;;;;;;;3.30;3.00;;;;;;;;;;5049803;28;20208;-63
2023/06/19 11:48:23;;;;;;;2.42;2.33;;;;;;;;;;5075464;28;20667;-63
2023/06/19 11:50:51;;;;;;;2.55;2.35;;;;;;;;;;5080254;28;20205;-62
2023/06/19 11:53:20;;;;;;;2.67;2.47;;;;;;;;;;5077771;28;20730;-61
2023/06/19 11:55:47;;;;;;;3.20;2.90;;;;;;;;;;5049017;28;20673;-61
2023/06/19 11:58:20;;;;;;;2.83;2.63;;;;;;;;;;5055274;28;20444;-62
2023/06/19 12:00:47;;;;;;;3.20;2.95;;;;;;;;;;5056513;28;20253;-61
2023/06/19 12:03:16;;;;;;;2.47;2.35;;;;;;;;;;5068478;28;20271;-63
2023/06/19 12:05:43;;;;;;;3.08;2.88;;;;;;;;;;5055881;28;20202;-63
2023/06/19 12:08:11;;;;;;;2.88;2.67;;;;;;;;;;5077627;28;20201;-62
2023/06/19 12:10:38;;;;;;;3.25;3.05;;;;;;;;;;5065616;28;20572;-62
2023/06/19 12:13:05;;;;;;;3.15;2.95;;;;;;;;;;5040445;28;20570;-62
2023/06/19 12:15:33;;;;;;;2.88;2.67;;;;;;;;;;5054526;28;20635;-62
2023/06/19 12:18:04;;;;;;;3.35;3.05;;;;;;;;;;5061064;28;20214;-63
2023/06/19 12:20:31;;;;;;;3.33;3.13;;;;;;;;;;5061742;28;20813;-63
2023/06/19 12:22:59;;;;;;;3.03;2.90;;;;;;;;;;5060430;28;20221;-65
2023/06/19 12:25:27;;;;;;;3.50;3.10;;;;;;;;;;5061722;28;20202;-64
2023/06/19 12:27:55;;;;;;;3.13;2.92;;;;;;;;;;5062000;28;20251;-66
2023/06/19 12:30:23;;;;;;;4.35;3.00;;;;;;;;;;5057496;28;20206;-63
2023/06/19 12:32:54;;;;;;;2.67;2.58;;;;;;;;;;5059975;28;20232;-63
2023/06/19 12:35:22;;;;;;;2.78;2.65;;;;;;;;;;5054078;28;20229;-63
2023/06/19 12:37:50;;;;;;;2.80;2.60;;;;;;;;;;5067287;28;20201;-66
2023/06/19 12:40:17;;;;;;;3.08;2.72;;;;;;;;;;5045766;28;20259;-63
2023/06/19 12:42:45;;;;;;;2.70;2.60;;;;;;;;;;5066483;28;20217;-64
2023/06/19 12:45:13;;;;;;;2.90;2.78;;;;;;;;;;5078167;28;20197;-64
2023/06/19 12:47:40;;;;;;;2.80;2.60;;;;;;;;;;5073646;28;20201;-64
2023/06/19 12:50:08;;;;;;;3.05;2.78;;;;;;;;;;5073365;28;20204;-65
2023/06/19 12:52:35;;;;;;;3.10;2.90;;;;;;;;;;5067447;28;20229;-64
2023/06/19 12:55:03;;;;;;;3.00;2.80;;;;;;;;;;5066872;28;20206;-64
2023/06/19 12:57:30;;;;;;;2.78;2.55;;;;;;;;;;5043066;28;20201;-63
2023/06/19 12:59:57;;;;;;;2.92;2.72;;;;;;;;;;5068981;28;20531;-63
2023/06/19 13:02:24;;;;;;;3.08;2.88;;;;;;;;;;5059833;28;20637;-62
2023/06/19 13:04:52;;;;;;;3.35;3.15;;;;;;;;;;5053547;28;20234;-62
2023/06/19 13:07:19;;;;;;;3.83;3.55;;;;;;;;;;5065556;28;20212;-62
2023/06/19 13:09:48;;;;;;;3.33;3.05;;;;;;;;;;5067938;28;20617;-62
2023/06/19 13:12:15;;;;;;;3.20;3.00;;;;;;;;;;5068468;28;20231;-61
2023/06/19 13:14:42;;;;;;;3.08;2.88;;;;;;;;;;5066413;28;20294;-61
2023/06/19 13:17:10;;;;;;;3.20;2.97;;;;;;;;;;5062863;28;20209;-64
2023/06/19 13:19:37;;;;;;;3.92;2.90;;;;;;;;;;5064638;28;20216;-63
2023/06/19 13:22:04;;;;;;;3.50;3.20;;;;;;;;;;5064695;28;20232;-63
2023/06/19 13:24:33;;;;;;;3.05;2.85;;;;;;;;;;5065614;28;20252;-63
2023/06/19 13:27:00;;;;;;;3.40;3.15;;;;;;;;;;5069363;28;20290;-63
2023/06/19 13:29:28;;;;;;;3.17;2.88;;;;;;;;;;5048897;28;20202;-63
2023/06/19 13:31:56;;;;;;;3.47;3.17;;;;;;;;;;5070674;28;20593;-63
2023/06/19 13:34:23;;;;;;;3.10;2.80;;;;;;;;;;5061120;28;20240;-62
2023/06/19 13:36:50;;;;;;;3.03;2.83;;;;;;;;;;5068845;28;20212;-62
2023/06/19 13:39:19;;;;;;;3.38;3.17;;;;;;;;;;5060439;28;20288;-62
2023/06/19 13:41:47;;;;;;;3.40;3.20;;;;;;;;;;5063431;28;20218;-62
2023/06/19 13:44:14;;;;;;;3.65;3.40;;;;;;;;;;5061297;28;20713;-63
2023/06/19 13:46:42;;;;;;;3.42;3.22;;;;;;;;;;5073585;28;20202;-63
2023/06/19 13:49:10;;;;;;;3.45;3.25;;;;;;;;;;5057466;28;20661;-63
2023/06/19 13:51:38;;;;;;;3.17;2.95;;;;;;;;;;5077538;28;20229;-62
2023/06/19 13:54:05;;;;;;;4.07;3.78;;;;;;;;;;5062940;28;20259;-62
2023/06/19 13:56:35;;;;;;;3.83;3.53;;;;;;;;;;5072786;28;20678;-62
2023/06/19 13:59:02;;;;;;;4.05;3.58;;;;;;;;;;5066406;28;20205;-62
2023/06/19 14:01:30;;;;;;;4.40;3.40;;;;;;;;;;5061680;28;20224;-64
2023/06/19 14:03:57;;;;;;;3.97;3.67;;;;;;;;;;5069135;28;20689;-62
2023/06/19 14:06:25;;;;;;;3.38;3.08;;;;;;;;;;5056831;28;20694;-62
2023/06/19 14:08:52;;;;;;;3.78;3.42;;;;;;;;;;5033268;28;20452;-61
2023/06/19 14:11:20;;;;;;;3.67;3.40;;;;;;;;;;5066072;28;20214;-62
2023/06/19 14:13:47;;;;;;;4.28;3.70;;;;;;;;;;5070294;28;20621;-62
2023/06/19 14:16:15;;;;;;;3.72;3.22;;;;;;;;;;5054822;28;20206;-62
2023/06/19 14:18:44;;;;;;;4.00;3.70;;;;;;;;;;5069726;28;20302;-62
2023/06/19 14:21:11;;;;;;;3.63;3.42;;;;;;;;;;5060294;28;20270;-62
2023/06/19 14:23:43;;;;;;;3.80;3.50;;;;;;;;;;5045977;28;20249;-63
2023/06/19 14:26:11;;;;;;;3.72;3.40;;;;;;;;;;5062207;28;20228;-62
2023/06/19 14:28:39;;;;;;;3.58;3.38;;;;;;;;;;5064001;28;20197;-61
2023/06/19 14:31:06;;;;;;;4.00;3.70;;;;;;;;;;5041871;28;20205;-62
2023/06/19 14:33:35;;;;;;;3.67;3.42;;;;;;;;;;5060417;28;20237;-62
2023/06/19 14:36:03;;;;;;;4.22;3.55;;;;;;;;;;5057861;28;20223;-64
2023/06/19 14:38:33;;;;;;;5.47;4.40;;;;;;;;;;5058184;28;20211;-64
2023/06/19 14:41:01;;;;;;;4.22;3.65;;;;;;;;;;5054570;28;20230;-64
2023/06/19 14:43:30;;;;;;;3.53;3.33;;;;;;;;;;5062891;28;20246;-61
2023/06/19 14:46:00;;;;;;;3.80;3.50;;;;;;;;;;5062933;28;20524;-62
2023/06/19 14:48:30;;;;;;;4.43;4.07;;;;;;;;;;5063999;28;20237;-61
2023/06/19 14:50:57;;;;;;;4.80;3.70;;;;;;;;;;5064545;28;20296;-62